sensor_id;sensor_type;location;lat;lon;timestamp;temperature;humidity
42479;DHT22;28110;47.080;9.476;2023-11-21T00:00:13;8.00;99.90
42479;DHT22;28110;47.080;9.476;2023-11-21T00:02:39;7.90;99.90
42479;DHT22;28110;47.080;9.476;2023-11-21T00:05:07;7.90;99.90
42479;DHT22;28110;47.080;9.476;2023-11-21T00:07:33;7.90;99.90
42479;DHT22;28110;47.080;9.476;2023-11-21T00:09:59;7.90;99.90
42479;DHT22;28110;47.080;9.476;2023-11-21T00:12:24;7.80;99.90
42479;DHT22;28110;47.080;9.476;2023-11-21T00:14:50;7.70;99.90
42479;DHT22;28110;47.080;9.476;2023-11-21T00:17:16;7.70;99.90
42479;DHT22;28110;47.080;9.476;2023-11-21T00:19:41;7.70;99.90
42479;DHT22;28110;47.080;9.476;2023-11-21T00:22:08;7.70;99.90
42479;DHT22;28110;47.080;9.476;2023-11-21T00:24:34;7.70;99.90
42479;DHT22;28110;47.080;9.476;2023-11-21T00:27:00;7.70;99.90
42479;DHT22;28110;47.080;9.476;2023-11-21T00:29:26;7.70;99.90
42479;DHT22;28110;47.080;9.476;2023-11-21T00:31:51;7.70;99.90
42479;DHT22;28110;47.080;9.476;2023-11-21T00:34:17;7.70;99.90
42479;DHT22;28110;47.080;9.476;2023-11-21T00:36:42;7.70;99.90
42479;DHT22;28110;47.080;9.476;2023-11-21T00:39:08;7.70;99.90
42479;DHT22;28110;47.080;9.476;2023-11-21T00:41:34;7.60;99.90
42479;DHT22;28110;47.080;9.476;2023-11-21T00:44:00;7.60;99.90
42479;DHT22;28110;47.080;9.476;2023-11-21T00:46:26;7.60;99.90
42479;DHT22;28110;47.080;9.476;2023-11-21T00:48:55;7.60;99.90
42479;DHT22;28110;47.080;9.476;2023-11-21T00:51:21;7.60;99.90
42479;DHT22;28110;47.080;9.476;2023-11-21T00:53:47;7.60;99.90
42479;DHT22;28110;47.080;9.476;2023-11-21T00:56:13;7.50;99.90
42479;DHT22;28110;47.080;9.476;2023-11-21T00:58:38;7.40;99.90
42479;DHT22;28110;47.080;9.476;2023-11-21T01:01:04;7.40;99.90
42479;DHT22;28110;47.080;9.476;2023-11-21T01:03:30;7.40;99.90
42479;DHT22;28110;47.080;9.476;2023-11-21T01:05:55;7.40;99.90
42479;DHT22;28110;47.080;9.476;2023-11-21T01:08:21;7.40;99.90
42479;DHT22;28110;47.080;9.476;2023-11-21T01:10:47;7.30;99.90
42479;DHT22;28110;47.080;9.476;2023-11-21T01:13:12;7.30;99.90
42479;DHT22;28110;47.080;9.476;2023-11-21T01:15:40;7.30;99.90
42479;DHT22;28110;47.080;9.476;2023-11-21T01:18:07;7.30;99.90
42479;DHT22;28110;47.080;9.476;2023-11-21T01:20:34;7.30;99.90
42479;DHT22;28110;47.080;9.476;2023-11-21T01:22:59;7.20;99.90
42479;DHT22;28110;47.080;9.476;2023-11-21T01:25:25;7.20;99.90
42479;DHT22;28110;47.080;9.476;2023-11-21T01:27:51;7.20;99.90
42479;DHT22;28110;47.080;9.476;2023-11-21T01:30:17;7.20;99.90
42479;DHT22;28110;47.080;9.476;2023-11-21T01:32:42;7.20;99.90
42479;DHT22;28110;47.080;9.476;2023-11-21T01:35:09;7.10;99.90
42479;DHT22;28110;47.080;9.476;2023-11-21T01:37:38;7.10;99.90
42479;DHT22;28110;47.080;9.476;2023-11-21T01:40:05;7.10;99.90
42479;DHT22;28110;47.080;9.476;2023-11-21T01:42:35;7.10;99.90
42479;DHT22;28110;47.080;9.476;2023-11-21T01:45:01;7.10;99.90
42479;DHT22;28110;47.080;9.476;2023-11-21T01:47:28;7.10;99.90
42479;DHT22;28110;47.080;9.476;2023-11-21T01:49:55;7.10;99.90
42479;DHT22;28110;47.080;9.476;2023-11-21T01:52:21;7.10;99.90
42479;DHT22;28110;47.080;9.476;2023-11-21T01:54:46;7.00;99.90
42479;DHT22;28110;47.080;9.476;2023-11-21T01:57:13;7.10;99.90
42479;DHT22;28110;47.080;9.476;2023-11-21T01:59:41;7.00;99.90
42479;DHT22;28110;47.080;9.476;2023-11-21T02:02:07;7.00;99.90
42479;DHT22;28110;47.080;9.476;2023-11-21T02:04:34;7.00;99.90
42479;DHT22;28110;47.080;9.476;2023-11-21T02:07:03;7.00;99.90
42479;DHT22;28110;47.080;9.476;2023-11-21T02:09:32;7.00;99.90
42479;DHT22;28110;47.080;9.476;2023-11-21T02:11:59;7.00;99.90
42479;DHT22;28110;47.080;9.476;2023-11-21T02:14:26;7.00;99.90
42479;DHT22;28110;47.080;9.476;2023-11-21T02:16:53;7.00;99.90
42479;DHT22;28110;47.080;9.476;2023-11-21T02:19:20;7.00;99.90
42479;DHT22;28110;47.080;9.476;2023-11-21T02:21:49;7.00;99.90
42479;DHT22;28110;47.080;9.476;2023-11-21T02:24:15;7.00;99.90
42479;DHT22;28110;47.080;9.476;2023-11-21T02:26:41;7.00;99.90
42479;DHT22;28110;47.080;9.476;2023-11-21T02:29:06;7.00;99.90
42479;DHT22;28110;47.080;9.476;2023-11-21T02:31:36;7.00;99.90
42479;DHT22;28110;47.080;9.476;2023-11-21T02:34:03;7.00;99.90
42479;DHT22;28110;47.080;9.476;2023-11-21T02:36:31;7.00;99.90
42479;DHT22;28110;47.080;9.476;2023-11-21T02:38:56;7.00;99.90
42479;DHT22;28110;47.080;9.476;2023-11-21T02:41:22;7.00;99.90
42479;DHT22;28110;47.080;9.476;2023-11-21T02:43:47;6.90;99.90
42479;DHT22;28110;47.080;9.476;2023-11-21T02:46:13;6.90;99.90
42479;DHT22;28110;47.080;9.476;2023-11-21T02:48:38;7.00;99.90
42479;DHT22;28110;47.080;9.476;2023-11-21T02:51:04;6.90;99.90
42479;DHT22;28110;47.080;9.476;2023-11-21T02:53:29;6.90;99.90
42479;DHT22;28110;47.080;9.476;2023-11-21T02:55:55;6.90;99.90
42479;DHT22;28110;47.080;9.476;2023-11-21T02:58:20;6.90;99.90
42479;DHT22;28110;47.080;9.476;2023-11-21T03:00:46;6.90;99.90
42479;DHT22;28110;47.080;9.476;2023-11-21T03:03:12;6.90;99.90
42479;DHT22;28110;47.080;9.476;2023-11-21T03:05:38;6.90;99.90
42479;DHT22;28110;47.080;9.476;2023-11-21T03:08:03;6.80;99.90
42479;DHT22;28110;47.080;9.476;2023-11-21T03:10:29;6.90;99.90
42479;DHT22;28110;47.080;9.476;2023-11-21T03:12:55;6.90;99.90
42479;DHT22;28110;47.080;9.476;2023-11-21T03:15:20;6.80;99.90
42479;DHT22;28110;47.080;9.476;2023-11-21T03:17:46;6.80;99.90
42479;DHT22;28110;47.080;9.476;2023-11-21T03:20:14;6.80;99.90
42479;DHT22;28110;47.080;9.476;2023-11-21T03:22:41;6.80;99.90
42479;DHT22;28110;47.080;9.476;2023-11-21T03:25:08;6.70;99.90
42479;DHT22;28110;47.080;9.476;2023-11-21T03:27:36;6.70;99.90
42479;DHT22;28110;47.080;9.476;2023-11-21T03:30:02;6.70;99.90
42479;DHT22;28110;47.080;9.476;2023-11-21T03:32:29;6.70;99.90
42479;DHT22;28110;47.080;9.476;2023-11-21T03:34:56;6.70;99.90
42479;DHT22;28110;47.080;9.476;2023-11-21T03:37:23;6.70;99.90
42479;DHT22;28110;47.080;9.476;2023-11-21T03:39:48;6.70;99.90
42479;DHT22;28110;47.080;9.476;2023-11-21T03:42:14;6.70;99.90
42479;DHT22;28110;47.080;9.476;2023-11-21T03:44:39;6.70;99.90
42479;DHT22;28110;47.080;9.476;2023-11-21T03:47:05;6.70;99.90
42479;DHT22;28110;47.080;9.476;2023-11-21T03:49:30;6.80;99.90
42479;DHT22;28110;47.080;9.476;2023-11-21T03:51:56;6.70;99.90
42479;DHT22;28110;47.080;9.476;2023-11-21T03:54:22;6.70;99.90
42479;DHT22;28110;47.080;9.476;2023-11-21T03:56:47;6.70;99.90
42479;DHT22;28110;47.080;9.476;2023-11-21T03:59:13;6.70;99.90
42479;DHT22;28110;47.080;9.476;2023-11-21T04:01:38;6.70;99.90
42479;DHT22;28110;47.080;9.476;2023-11-21T04:04:04;6.70;99.90
42479;DHT22;28110;47.080;9.476;2023-11-21T04:06:29;6.60;99.90
42479;DHT22;28110;47.080;9.476;2023-11-21T04:08:55;6.70;99.90
42479;DHT22;28110;47.080;9.476;2023-11-21T04:11:20;6.60;99.90
42479;DHT22;28110;47.080;9.476;2023-11-21T04:13:46;6.70;99.90
42479;DHT22;28110;47.080;9.476;2023-11-21T04:16:12;6.70;99.90
42479;DHT22;28110;47.080;9.476;2023-11-21T04:18:38;6.70;99.90
42479;DHT22;28110;47.080;9.476;2023-11-21T04:21:05;6.70;99.90
42479;DHT22;28110;47.080;9.476;2023-11-21T04:23:31;6.70;99.90
42479;DHT22;28110;47.080;9.476;2023-11-21T04:26:00;6.80;99.90
42479;DHT22;28110;47.080;9.476;2023-11-21T04:28:28;6.80;99.90
42479;DHT22;28110;47.080;9.476;2023-11-21T04:30:53;6.80;99.90
42479;DHT22;28110;47.080;9.476;2023-11-21T04:33:19;6.80;99.90
42479;DHT22;28110;47.080;9.476;2023-11-21T04:35:45;6.80;99.90
42479;DHT22;28110;47.080;9.476;2023-11-21T04:38:11;6.80;99.90
42479;DHT22;28110;47.080;9.476;2023-11-21T04:40:37;6.70;99.90
42479;DHT22;28110;47.080;9.476;2023-11-21T04:43:02;6.70;99.90
42479;DHT22;28110;47.080;9.476;2023-11-21T04:45:29;6.70;99.90
42479;DHT22;28110;47.080;9.476;2023-11-21T04:47:54;6.80;99.90
42479;DHT22;28110;47.080;9.476;2023-11-21T04:50:20;6.80;99.90
42479;DHT22;28110;47.080;9.476;2023-11-21T04:52:45;6.80;99.90
42479;DHT22;28110;47.080;9.476;2023-11-21T04:55:11;6.90;99.90
42479;DHT22;28110;47.080;9.476;2023-11-21T04:57:37;6.90;99.90
42479;DHT22;28110;47.080;9.476;2023-11-21T05:00:03;7.00;99.90
42479;DHT22;28110;47.080;9.476;2023-11-21T05:02:34;7.00;99.90
42479;DHT22;28110;47.080;9.476;2023-11-21T05:05:00;7.00;99.90
42479;DHT22;28110;47.080;9.476;2023-11-21T05:07:26;7.00;99.90
42479;DHT22;28110;47.080;9.476;2023-11-21T05:09:55;7.00;99.90
42479;DHT22;28110;47.080;9.476;2023-11-21T05:12:22;7.00;99.90
42479;DHT22;28110;47.080;9.476;2023-11-21T05:14:49;7.00;99.90
42479;DHT22;28110;47.080;9.476;2023-11-21T05:17:14;7.00;99.90
42479;DHT22;28110;47.080;9.476;2023-11-21T05:19:40;7.10;99.90
42479;DHT22;28110;47.080;9.476;2023-11-21T05:22:06;7.10;99.90
42479;DHT22;28110;47.080;9.476;2023-11-21T05:24:31;7.10;99.90
42479;DHT22;28110;47.080;9.476;2023-11-21T05:26:57;7.10;99.90
42479;DHT22;28110;47.080;9.476;2023-11-21T05:29:23;7.10;99.90
42479;DHT22;28110;47.080;9.476;2023-11-21T05:31:49;7.10;99.90
42479;DHT22;28110;47.080;9.476;2023-11-21T05:34:15;7.10;99.90
42479;DHT22;28110;47.080;9.476;2023-11-21T05:36:43;7.10;99.90
42479;DHT22;28110;47.080;9.476;2023-11-21T05:39:09;7.20;99.90
42479;DHT22;28110;47.080;9.476;2023-11-21T05:41:36;7.20;99.90
42479;DHT22;28110;47.080;9.476;2023-11-21T05:44:02;7.20;99.90
42479;DHT22;28110;47.080;9.476;2023-11-21T05:46:27;7.20;99.90
42479;DHT22;28110;47.080;9.476;2023-11-21T05:48:53;7.20;99.90
42479;DHT22;28110;47.080;9.476;2023-11-21T05:51:19;7.20;99.90
42479;DHT22;28110;47.080;9.476;2023-11-21T05:53:44;7.30;99.90
42479;DHT22;28110;47.080;9.476;2023-11-21T05:56:10;7.30;99.90
42479;DHT22;28110;47.080;9.476;2023-11-21T05:58:35;7.30;99.90
42479;DHT22;28110;47.080;9.476;2023-11-21T06:01:01;7.20;99.90
42479;DHT22;28110;47.080;9.476;2023-11-21T06:03:28;7.20;99.90
42479;DHT22;28110;47.080;9.476;2023-11-21T06:05:53;7.20;99.90
42479;DHT22;28110;47.080;9.476;2023-11-21T06:08:19;7.20;99.90
42479;DHT22;28110;47.080;9.476;2023-11-21T06:10:45;7.20;99.90
42479;DHT22;28110;47.080;9.476;2023-11-21T06:13:10;7.20;99.90
42479;DHT22;28110;47.080;9.476;2023-11-21T06:15:36;7.20;99.90
42479;DHT22;28110;47.080;9.476;2023-11-21T06:18:01;7.20;99.90
42479;DHT22;28110;47.080;9.476;2023-11-21T06:20:27;7.20;99.90
42479;DHT22;28110;47.080;9.476;2023-11-21T06:22:53;7.20;99.90
42479;DHT22;28110;47.080;9.476;2023-11-21T06:25:19;7.20;99.90
42479;DHT22;28110;47.080;9.476;2023-11-21T06:27:46;7.10;99.90
42479;DHT22;28110;47.080;9.476;2023-11-21T06:30:13;7.10;99.90
42479;DHT22;28110;47.080;9.476;2023-11-21T06:32:40;7.10;99.90
42479;DHT22;28110;47.080;9.476;2023-11-21T06:35:07;7.20;99.90
42479;DHT22;28110;47.080;9.476;2023-11-21T06:37:33;7.20;99.90
42479;DHT22;28110;47.080;9.476;2023-11-21T06:39:59;7.20;99.90
42479;DHT22;28110;47.080;9.476;2023-11-21T06:42:26;7.20;99.90
42479;DHT22;28110;47.080;9.476;2023-11-21T06:44:52;7.20;99.90
42479;DHT22;28110;47.080;9.476;2023-11-21T06:47:19;7.30;99.90
42479;DHT22;28110;47.080;9.476;2023-11-21T06:49:50;7.30;99.90
42479;DHT22;28110;47.080;9.476;2023-11-21T06:52:16;7.30;99.90
42479;DHT22;28110;47.080;9.476;2023-11-21T06:54:41;7.30;99.90
42479;DHT22;28110;47.080;9.476;2023-11-21T06:57:07;7.40;99.90
42479;DHT22;28110;47.080;9.476;2023-11-21T06:59:33;7.40;99.90
42479;DHT22;28110;47.080;9.476;2023-11-21T07:01:58;7.50;99.90
42479;DHT22;28110;47.080;9.476;2023-11-21T07:04:24;7.50;99.90
42479;DHT22;28110;47.080;9.476;2023-11-21T07:06:52;7.50;99.90
42479;DHT22;28110;47.080;9.476;2023-11-21T07:09:18;7.60;99.90
42479;DHT22;28110;47.080;9.476;2023-11-21T07:11:47;7.50;99.90
42479;DHT22;28110;47.080;9.476;2023-11-21T07:14:14;7.50;99.90
42479;DHT22;28110;47.080;9.476;2023-11-21T07:16:39;7.60;99.90
42479;DHT22;28110;47.080;9.476;2023-11-21T07:19:05;7.60;99.90
42479;DHT22;28110;47.080;9.476;2023-11-21T07:21:32;7.60;99.90
42479;DHT22;28110;47.080;9.476;2023-11-21T07:23:58;7.60;99.90
42479;DHT22;28110;47.080;9.476;2023-11-21T07:26:24;7.60;99.90
42479;DHT22;28110;47.080;9.476;2023-11-21T07:28:51;7.60;99.90
42479;DHT22;28110;47.080;9.476;2023-11-21T07:31:16;7.60;99.90
42479;DHT22;28110;47.080;9.476;2023-11-21T07:33:41;7.60;99.90
42479;DHT22;28110;47.080;9.476;2023-11-21T07:36:07;7.60;99.90
42479;DHT22;28110;47.080;9.476;2023-11-21T07:38:33;7.60;99.90
42479;DHT22;28110;47.080;9.476;2023-11-21T07:40:59;7.60;99.90
42479;DHT22;28110;47.080;9.476;2023-11-21T07:43:26;7.60;99.90
42479;DHT22;28110;47.080;9.476;2023-11-21T07:45:52;7.60;99.90
42479;DHT22;28110;47.080;9.476;2023-11-21T07:48:17;7.60;99.90
42479;DHT22;28110;47.080;9.476;2023-11-21T07:50:43;7.60;99.90
42479;DHT22;28110;47.080;9.476;2023-11-21T07:53:09;7.60;99.90
42479;DHT22;28110;47.080;9.476;2023-11-21T07:55:34;7.70;99.90
42479;DHT22;28110;47.080;9.476;2023-11-21T07:58:01;7.80;99.90
42479;DHT22;28110;47.080;9.476;2023-11-21T08:00:27;7.90;99.90
42479;DHT22;28110;47.080;9.476;2023-11-21T08:02:55;7.90;99.90
42479;DHT22;28110;47.080;9.476;2023-11-21T08:05:21;8.00;99.90
42479;DHT22;28110;47.080;9.476;2023-11-21T08:07:46;8.10;99.90
42479;DHT22;28110;47.080;9.476;2023-11-21T08:10:12;8.10;99.90
42479;DHT22;28110;47.080;9.476;2023-11-21T08:12:38;8.20;99.90
42479;DHT22;28110;47.080;9.476;2023-11-21T08:15:04;8.30;99.90
42479;DHT22;28110;47.080;9.476;2023-11-21T08:17:30;8.20;99.90
42479;DHT22;28110;47.080;9.476;2023-11-21T08:19:58;8.30;99.90
42479;DHT22;28110;47.080;9.476;2023-11-21T08:22:23;8.40;99.90
42479;DHT22;28110;47.080;9.476;2023-11-21T08:24:50;8.40;99.90
42479;DHT22;28110;47.080;9.476;2023-11-21T08:27:16;8.50;99.90
42479;DHT22;28110;47.080;9.476;2023-11-21T08:29:42;8.50;99.90
42479;DHT22;28110;47.080;9.476;2023-11-21T08:32:08;8.60;99.90
42479;DHT22;28110;47.080;9.476;2023-11-21T08:34:33;8.60;99.90
42479;DHT22;28110;47.080;9.476;2023-11-21T08:36:59;8.60;99.90
42479;DHT22;28110;47.080;9.476;2023-11-21T08:39:24;8.60;99.90
42479;DHT22;28110;47.080;9.476;2023-11-21T08:41:53;8.50;99.90
42479;DHT22;28110;47.080;9.476;2023-11-21T08:44:18;8.40;99.90
42479;DHT22;28110;47.080;9.476;2023-11-21T08:46:44;8.40;99.90
42479;DHT22;28110;47.080;9.476;2023-11-21T08:49:13;8.30;99.90
42479;DHT22;28110;47.080;9.476;2023-11-21T08:51:40;8.30;99.90
42479;DHT22;28110;47.080;9.476;2023-11-21T08:54:06;8.30;99.90
42479;DHT22;28110;47.080;9.476;2023-11-21T08:56:34;8.40;99.90
42479;DHT22;28110;47.080;9.476;2023-11-21T08:59:00;8.40;99.90
42479;DHT22;28110;47.080;9.476;2023-11-21T09:01:30;8.30;99.90
42479;DHT22;28110;47.080;9.476;2023-11-21T09:03:58;8.30;99.90
42479;DHT22;28110;47.080;9.476;2023-11-21T09:06:24;8.40;99.90
42479;DHT22;28110;47.080;9.476;2023-11-21T09:08:50;8.40;99.90
42479;DHT22;28110;47.080;9.476;2023-11-21T09:11:16;8.40;99.90
42479;DHT22;28110;47.080;9.476;2023-11-21T09:13:42;8.50;99.90
42479;DHT22;28110;47.080;9.476;2023-11-21T09:16:08;8.50;99.90
42479;DHT22;28110;47.080;9.476;2023-11-21T09:18:33;8.50;99.90
42479;DHT22;28110;47.080;9.476;2023-11-21T09:20:59;8.50;99.90
42479;DHT22;28110;47.080;9.476;2023-11-21T09:23:25;8.50;99.90
42479;DHT22;28110;47.080;9.476;2023-11-21T09:25:50;8.50;99.90
42479;DHT22;28110;47.080;9.476;2023-11-21T09:28:17;8.60;99.90
42479;DHT22;28110;47.080;9.476;2023-11-21T09:30:43;8.60;99.90
42479;DHT22;28110;47.080;9.476;2023-11-21T09:33:09;8.50;99.90
42479;DHT22;28110;47.080;9.476;2023-11-21T09:35:39;8.60;99.90
42479;DHT22;28110;47.080;9.476;2023-11-21T09:38:04;8.60;99.90
42479;DHT22;28110;47.080;9.476;2023-11-21T09:40:35;8.70;99.90
42479;DHT22;28110;47.080;9.476;2023-11-21T09:43:17;8.70;99.90
42479;DHT22;28110;47.080;9.476;2023-11-21T09:45:47;8.80;99.90
42479;DHT22;28110;47.080;9.476;2023-11-21T09:48:14;8.80;99.90
42479;DHT22;28110;47.080;9.476;2023-11-21T09:50:42;8.90;99.90
42479;DHT22;28110;47.080;9.476;2023-11-21T09:53:18;8.90;99.90
42479;DHT22;28110;47.080;9.476;2023-11-21T09:55:48;8.90;99.90
42479;DHT22;28110;47.080;9.476;2023-11-21T09:58:14;9.00;99.90
42479;DHT22;28110;47.080;9.476;2023-11-21T10:00:44;9.00;99.90
42479;DHT22;28110;47.080;9.476;2023-11-21T10:03:10;9.10;99.90
42479;DHT22;28110;47.080;9.476;2023-11-21T10:05:37;9.20;99.90
42479;DHT22;28110;47.080;9.476;2023-11-21T10:08:10;9.20;99.90
42479;DHT22;28110;47.080;9.476;2023-11-21T10:10:37;9.30;99.90
42479;DHT22;28110;47.080;9.476;2023-11-21T10:13:05;9.30;99.90
42479;DHT22;28110;47.080;9.476;2023-11-21T10:15:34;9.40;99.90
42479;DHT22;28110;47.080;9.476;2023-11-21T10:18:04;9.50;99.90
42479;DHT22;28110;47.080;9.476;2023-11-21T10:20:34;9.50;99.90
42479;DHT22;28110;47.080;9.476;2023-11-21T10:23:00;9.60;99.90
42479;DHT22;28110;47.080;9.476;2023-11-21T10:25:30;9.60;99.90
42479;DHT22;28110;47.080;9.476;2023-11-21T10:28:01;9.70;99.90
42479;DHT22;28110;47.080;9.476;2023-11-21T10:30:34;9.70;99.90
42479;DHT22;28110;47.080;9.476;2023-11-21T10:33:02;9.70;99.90
42479;DHT22;28110;47.080;9.476;2023-11-21T10:35:43;9.70;99.90
42479;DHT22;28110;47.080;9.476;2023-11-21T10:38:19;9.70;99.90
42479;DHT22;28110;47.080;9.476;2023-11-21T10:40:48;9.70;99.90
42479;DHT22;28110;47.080;9.476;2023-11-21T10:43:15;9.70;99.90
42479;DHT22;28110;47.080;9.476;2023-11-21T10:45:41;9.70;99.90
42479;DHT22;28110;47.080;9.476;2023-11-21T10:48:13;9.60;99.90
42479;DHT22;28110;47.080;9.476;2023-11-21T10:50:46;9.60;99.90
42479;DHT22;28110;47.080;9.476;2023-11-21T10:53:12;9.60;99.90
42479;DHT22;28110;47.080;9.476;2023-11-21T10:55:38;9.60;99.90
42479;DHT22;28110;47.080;9.476;2023-11-21T10:58:05;9.70;99.90
42479;DHT22;28110;47.080;9.476;2023-11-21T11:00:32;9.70;99.90
42479;DHT22;28110;47.080;9.476;2023-11-21T11:02:58;9.70;99.90
42479;DHT22;28110;47.080;9.476;2023-11-21T11:05:25;9.70;99.90
42479;DHT22;28110;47.080;9.476;2023-11-21T11:07:57;9.70;99.90
42479;DHT22;28110;47.080;9.476;2023-11-21T11:10:27;9.60;99.90
42479;DHT22;28110;47.080;9.476;2023-11-21T11:12:54;9.70;99.90
42479;DHT22;28110;47.080;9.476;2023-11-21T11:15:21;9.70;99.90
42479;DHT22;28110;47.080;9.476;2023-11-21T11:17:47;9.60;99.90
42479;DHT22;28110;47.080;9.476;2023-11-21T11:20:14;9.60;99.90
42479;DHT22;28110;47.080;9.476;2023-11-21T11:28:35;9.50;99.90
42479;DHT22;28110;47.080;9.476;2023-11-21T11:31:27;9.50;99.90
42479;DHT22;28110;47.080;9.476;2023-11-21T11:34:30;9.50;99.90
42479;DHT22;28110;47.080;9.476;2023-11-21T11:37:06;9.40;99.90
42479;DHT22;28110;47.080;9.476;2023-11-21T11:39:39;9.50;99.90
42479;DHT22;28110;47.080;9.476;2023-11-21T11:42:10;9.40;99.90
42479;DHT22;28110;47.080;9.476;2023-11-21T11:47:15;9.60;99.90
42479;DHT22;28110;47.080;9.476;2023-11-21T11:50:07;9.60;99.90
42479;DHT22;28110;47.080;9.476;2023-11-21T11:52:38;9.60;99.90
42479;DHT22;28110;47.080;9.476;2023-11-21T11:55:08;9.70;99.90
42479;DHT22;28110;47.080;9.476;2023-11-21T11:57:35;9.70;99.90
42479;DHT22;28110;47.080;9.476;2023-11-21T12:00:12;9.80;99.90
42479;DHT22;28110;47.080;9.476;2023-11-21T12:02:44;9.90;99.90
42479;DHT22;28110;47.080;9.476;2023-11-21T12:05:11;10.00;99.90
42479;DHT22;28110;47.080;9.476;2023-11-21T12:07:52;10.00;99.90
42479;DHT22;28110;47.080;9.476;2023-11-21T12:10:40;10.10;99.90
42479;DHT22;28110;47.080;9.476;2023-11-21T12:13:07;10.10;99.90
42479;DHT22;28110;47.080;9.476;2023-11-21T12:15:33;10.10;99.90
42479;DHT22;28110;47.080;9.476;2023-11-21T12:18:00;10.10;99.90
42479;DHT22;28110;47.080;9.476;2023-11-21T12:20:26;10.10;99.90
42479;DHT22;28110;47.080;9.476;2023-11-21T12:22:54;10.20;99.90
42479;DHT22;28110;47.080;9.476;2023-11-21T12:25:24;10.20;99.90
42479;DHT22;28110;47.080;9.476;2023-11-21T12:27:51;10.10;99.90
42479;DHT22;28110;47.080;9.476;2023-11-21T12:30:19;10.10;99.90
42479;DHT22;28110;47.080;9.476;2023-11-21T12:32:51;10.20;99.90
42479;DHT22;28110;47.080;9.476;2023-11-21T12:35:18;10.20;99.90
42479;DHT22;28110;47.080;9.476;2023-11-21T12:37:47;10.20;99.90
42479;DHT22;28110;47.080;9.476;2023-11-21T12:40:14;10.20;99.90
42479;DHT22;28110;47.080;9.476;2023-11-21T12:42:44;10.20;99.90
42479;DHT22;28110;47.080;9.476;2023-11-21T12:47:56;10.10;99.90
42479;DHT22;28110;47.080;9.476;2023-11-21T12:50:26;9.90;99.90
42479;DHT22;28110;47.080;9.476;2023-11-21T12:55:25;9.70;99.90
42479;DHT22;28110;47.080;9.476;2023-11-21T12:57:53;9.70;99.90
42479;DHT22;28110;47.080;9.476;2023-11-21T13:00:32;9.60;99.90
42479;DHT22;28110;47.080;9.476;2023-11-21T13:02:59;9.70;99.90
42479;DHT22;28110;47.080;9.476;2023-11-21T13:05:39;9.60;99.90
42479;DHT22;28110;47.080;9.476;2023-11-21T13:08:07;9.70;99.90
42479;DHT22;28110;47.080;9.476;2023-11-21T13:10:35;9.70;99.90
42479;DHT22;28110;47.080;9.476;2023-11-21T13:13:04;9.60;99.90
42479;DHT22;28110;47.080;9.476;2023-11-21T13:15:35;9.60;99.90
42479;DHT22;28110;47.080;9.476;2023-11-21T13:18:04;9.60;99.90
42479;DHT22;28110;47.080;9.476;2023-11-21T13:20:29;9.60;99.90
42479;DHT22;28110;47.080;9.476;2023-11-21T13:22:58;9.60;99.90
42479;DHT22;28110;47.080;9.476;2023-11-21T13:25:25;9.60;99.90
42479;DHT22;28110;47.080;9.476;2023-11-21T13:27:55;9.60;99.90
42479;DHT22;28110;47.080;9.476;2023-11-21T13:30:22;9.60;99.90
42479;DHT22;28110;47.080;9.476;2023-11-21T13:32:55;9.60;99.90
42479;DHT22;28110;47.080;9.476;2023-11-21T13:35:27;9.60;99.90
42479;DHT22;28110;47.080;9.476;2023-11-21T13:38:12;9.50;99.90
42479;DHT22;28110;47.080;9.476;2023-11-21T13:40:39;9.50;99.90
42479;DHT22;28110;47.080;9.476;2023-11-21T13:43:12;9.40;99.90
42479;DHT22;28110;47.080;9.476;2023-11-21T13:45:38;9.50;99.90
42479;DHT22;28110;47.080;9.476;2023-11-21T13:48:08;9.40;99.90
42479;DHT22;28110;47.080;9.476;2023-11-21T13:50:37;9.40;99.90
42479;DHT22;28110;47.080;9.476;2023-11-21T13:53:03;9.50;99.90
42479;DHT22;28110;47.080;9.476;2023-11-21T13:55:44;9.50;99.90
42479;DHT22;28110;47.080;9.476;2023-11-21T13:58:10;9.50;99.90
42479;DHT22;28110;47.080;9.476;2023-11-21T14:00:42;9.50;99.90
42479;DHT22;28110;47.080;9.476;2023-11-21T14:03:11;9.50;99.90
42479;DHT22;28110;47.080;9.476;2023-11-21T14:05:45;9.50;99.90
42479;DHT22;28110;47.080;9.476;2023-11-21T14:08:13;9.50;99.90
42479;DHT22;28110;47.080;9.476;2023-11-21T14:10:42;9.50;99.90
42479;DHT22;28110;47.080;9.476;2023-11-21T14:13:16;9.50;99.90
42479;DHT22;28110;47.080;9.476;2023-11-21T14:15:42;9.60;99.90
42479;DHT22;28110;47.080;9.476;2023-11-21T14:18:08;9.60;99.90
42479;DHT22;28110;47.080;9.476;2023-11-21T14:20:38;9.60;99.90
42479;DHT22;28110;47.080;9.476;2023-11-21T14:23:05;9.60;99.90
42479;DHT22;28110;47.080;9.476;2023-11-21T14:25:33;9.50;99.90
42479;DHT22;28110;47.080;9.476;2023-11-21T14:28:00;9.50;99.90
42479;DHT22;28110;47.080;9.476;2023-11-21T14:30:26;9.40;99.90
42479;DHT22;28110;47.080;9.476;2023-11-21T14:32:52;9.40;99.90
42479;DHT22;28110;47.080;9.476;2023-11-21T14:35:18;9.30;99.90
42479;DHT22;28110;47.080;9.476;2023-11-21T14:37:44;9.30;99.90
42479;DHT22;28110;47.080;9.476;2023-11-21T14:40:12;9.20;99.90
42479;DHT22;28110;47.080;9.476;2023-11-21T14:42:41;9.20;99.90
42479;DHT22;28110;47.080;9.476;2023-11-21T14:45:07;9.10;99.90
42479;DHT22;28110;47.080;9.476;2023-11-21T14:47:33;9.10;99.90
42479;DHT22;28110;47.080;9.476;2023-11-21T14:50:01;9.10;99.90
42479;DHT22;28110;47.080;9.476;2023-11-21T14:52:44;9.00;99.90
42479;DHT22;28110;47.080;9.476;2023-11-21T14:55:24;9.00;99.90
42479;DHT22;28110;47.080;9.476;2023-11-21T14:58:10;9.00;99.90
42479;DHT22;28110;47.080;9.476;2023-11-21T15:00:39;9.00;99.90
42479;DHT22;28110;47.080;9.476;2023-11-21T15:03:11;9.00;99.90
42479;DHT22;28110;47.080;9.476;2023-11-21T15:06:05;9.00;99.90
42479;DHT22;28110;47.080;9.476;2023-11-21T15:08:54;9.00;99.90
42479;DHT22;28110;47.080;9.476;2023-11-21T15:11:32;8.90;99.90
42479;DHT22;28110;47.080;9.476;2023-11-21T15:13:58;8.90;99.90
42479;DHT22;28110;47.080;9.476;2023-11-21T15:16:24;8.80;99.90
42479;DHT22;28110;47.080;9.476;2023-11-21T15:18:52;8.80;99.90
42479;DHT22;28110;47.080;9.476;2023-11-21T15:21:18;8.70;99.90
42479;DHT22;28110;47.080;9.476;2023-11-21T15:23:44;8.70;99.90
42479;DHT22;28110;47.080;9.476;2023-11-21T15:26:10;8.60;99.90
42479;DHT22;28110;47.080;9.476;2023-11-21T15:28:36;8.50;99.90
42479;DHT22;28110;47.080;9.476;2023-11-21T15:31:01;8.60;99.90
42479;DHT22;28110;47.080;9.476;2023-11-21T15:33:28;8.50;99.90
42479;DHT22;28110;47.080;9.476;2023-11-21T15:35:54;8.40;99.90
42479;DHT22;28110;47.080;9.476;2023-11-21T15:38:23;8.40;99.90
42479;DHT22;28110;47.080;9.476;2023-11-21T15:40:49;8.30;99.90
42479;DHT22;28110;47.080;9.476;2023-11-21T15:43:15;8.30;99.90
42479;DHT22;28110;47.080;9.476;2023-11-21T15:45:41;8.20;99.90
42479;DHT22;28110;47.080;9.476;2023-11-21T15:48:06;8.20;99.90
42479;DHT22;28110;47.080;9.476;2023-11-21T15:50:32;8.30;99.90
42479;DHT22;28110;47.080;9.476;2023-11-21T15:52:58;8.30;99.90
42479;DHT22;28110;47.080;9.476;2023-11-21T15:55:27;8.20;99.90
42479;DHT22;28110;47.080;9.476;2023-11-21T15:57:52;8.20;99.90
42479;DHT22;28110;47.080;9.476;2023-11-21T16:00:18;8.20;99.90